Cotulla, Texas
Current Conditions -  °F | °C
As of 2:53 PM on Tuesday 21 Oct 2014 (Local Time) from KCOT Reporting Station
Scattered Clouds Scattered Clouds  
Wind Chill: 86°   Ceiling: Unl
Heat Index: 86°   Visibility: 10mi
Dew Point: 56°   Wind: 7mph
Humidity: 36%   Direction: 60°ENE
Pressure: 29.96"   Gusts: 21mph
Location:  28.44°N, 99.24°W
Report Text: KCOT 211953Z AUTO 06006G18KT 10SM SCT060 30/13 A2996 RMK AO2 SLP138 T03000133
Loading
Personal Weather Stations






























Interactive Weather Map New forecast layout! Learn more

10-Day Weather Forecast

Advertisements
Track Severe Weather on mobile